Bellville, Texas
Current Conditions -  °F | °C
As of 4:15 AM on Saturday 20 Dec 2014 (Local Time) from K11R Reporting Station
Overcast Overcast  
Wind Chill: 51°   Ceiling: 1400
Heat Index: 51°   Visibility: 10mi
Dew Point: 49°   Wind: 8mph
Humidity: 93%   Direction: 350°N
Pressure: 30.17"   Gusts: NA
Location:  29.95°N, 96.26°W
Report Text: K11R 201015Z AUTO 35007KT 10SM OVC014 11/09 A3017 RMK AO2 T01050094
Loading
Personal Weather Stations






























Interactive Weather Map New forecast layout! Learn more

10-Day Weather Forecast

Advertisements
Track Severe Weather on mobile